createdAt,value
2022-08-11T00:01:15.445Z,15.46
2022-08-11T00:03:46.809Z,15.56
2022-08-11T00:06:16.414Z,15.57
2022-08-11T00:08:50.740Z,15.51
2022-08-11T00:11:19.725Z,15.50
2022-08-11T00:13:49.707Z,15.61
2022-08-11T00:16:22.758Z,15.61
2022-08-11T00:18:53.711Z,15.55
2022-08-11T00:22:03.869Z,15.46
2022-08-11T00:24:12.269Z,15.39
2022-08-11T00:26:40.525Z,15.33
2022-08-11T00:29:12.669Z,15.36
2022-08-11T00:31:50.900Z,15.25
2022-08-11T00:34:23.718Z,15.22
2022-08-11T00:36:54.370Z,15.03
2022-08-11T00:39:28.484Z,15.01
2022-08-11T00:42:12.009Z,15.02
2022-08-11T00:44:48.451Z,14.84
2022-08-11T00:47:27.566Z,14.94
2022-08-11T00:50:08.953Z,14.85
2022-08-11T00:53:00.386Z,14.59
2022-08-11T00:56:09.560Z,14.40
2022-08-11T00:59:35.345Z,14.31
2022-08-11T01:02:15.779Z,14.31
2022-08-11T01:05:04.424Z,14.25
2022-08-11T01:08:05.868Z,14.24
2022-08-11T01:10:49.962Z,14.19
2022-08-11T01:13:40.049Z,14.23
2022-08-11T01:16:43.567Z,14.15
2022-08-11T01:20:45.475Z,14.09
2022-08-11T01:23:04.850Z,14.14
2022-08-11T01:26:19.624Z,14.27
2022-08-11T01:29:14.686Z,14.36
2022-08-11T01:32:05.649Z,14.47
2022-08-11T01:35:07.372Z,14.54
2022-08-11T01:38:05.988Z,14.48
2022-08-11T01:41:15.922Z,14.53
2022-08-11T01:44:20.702Z,14.59
2022-08-11T01:46:53.503Z,14.59
2022-08-11T01:50:08.325Z,14.73
2022-08-11T01:52:34.797Z,14.65
2022-08-11T01:55:15.942Z,14.55
2022-08-11T01:57:51.937Z,14.44
2022-08-11T02:00:22.078Z,14.45
2022-08-11T02:02:59.653Z,14.46
2022-08-11T02:05:38.088Z,14.37
2022-08-11T02:08:13.096Z,14.46
2022-08-11T02:11:06.677Z,14.39
2022-08-11T02:13:42.793Z,14.32
2022-08-11T02:16:23.450Z,14.35
2022-08-11T02:19:13.897Z,14.33
2022-08-11T02:22:05.572Z,14.29
2022-08-11T02:24:42.311Z,14.29
2022-08-11T02:27:21.832Z,14.27
2022-08-11T02:30:05.105Z,14.29
2022-08-11T02:32:58.036Z,14.14
2022-08-11T02:35:37.023Z,14.07
2022-08-11T02:38:15.632Z,13.84
2022-08-11T02:40:51.663Z,13.81
2022-08-11T02:43:29.163Z,13.83
2022-08-11T02:46:08.271Z,13.90
2022-08-11T02:49:17.262Z,13.92
2022-08-11T02:52:01.823Z,14.06
2022-08-11T02:54:38.184Z,14.08
2022-08-11T02:57:14.659Z,14.03
2022-08-11T03:00:07.626Z,13.98
2022-08-11T03:02:54.549Z,13.82
2022-08-11T03:05:29.050Z,13.67
2022-08-11T03:08:19.434Z,13.59
2022-08-11T03:11:16.401Z,13.52
2022-08-11T03:14:12.809Z,13.68
2022-08-11T03:16:53.738Z,13.63
2022-08-11T03:19:31.674Z,13.59
2022-08-11T03:22:12.233Z,13.44
2022-08-11T03:25:07.881Z,13.50
2022-08-11T03:27:51.781Z,13.65
2022-08-11T03:30:26.872Z,13.59
2022-08-11T03:33:27.226Z,13.39
2022-08-11T03:36:10.840Z,13.42
2022-08-11T03:38:54.999Z,13.44
2022-08-11T03:42:02.394Z,13.46
2022-08-11T03:44:44.568Z,13.65
2022-08-11T03:47:37.916Z,13.73
2022-08-11T03:50:28.327Z,13.81
2022-08-11T03:53:11.141Z,13.86
2022-08-11T03:56:09.693Z,13.86
2022-08-11T03:58:56.647Z,13.84
2022-08-11T04:01:46.992Z,13.86
2022-08-11T04:04:54.765Z,14.04
2022-08-11T04:07:59.769Z,14.11
2022-08-11T04:10:51.538Z,14.04
2022-08-11T04:14:22.305Z,14.15
2022-08-11T04:17:07.051Z,14.12
2022-08-11T04:19:55.501Z,14.06
2022-08-11T04:22:46.364Z,14.18
2022-08-11T04:25:58.644Z,14.11
2022-08-11T04:28:56.830Z,14.19
2022-08-11T04:31:44.154Z,14.34
2022-08-11T04:34:52.794Z,14.56
2022-08-11T04:37:44.486Z,14.62
2022-08-11T04:40:51.900Z,14.65
2022-08-11T04:44:07.573Z,14.76
2022-08-11T04:47:09.037Z,14.87
2022-08-11T04:50:34.558Z,14.78
2022-08-11T04:53:53.015Z,14.87
2022-08-11T04:56:41.707Z,15.07
2022-08-11T05:00:08.736Z,15.15
2022-08-11T05:03:15.607Z,15.35
2022-08-11T05:05:58.783Z,15.50
2022-08-11T05:08:55.581Z,15.47
2022-08-11T05:11:46.045Z,15.81
2022-08-11T05:14:50.787Z,15.83
2022-08-11T05:17:45.900Z,15.75
2022-08-11T05:20:33.439Z,16.07
2022-08-11T05:23:25.394Z,16.01
2022-08-11T05:26:46.598Z,16.01
2022-08-11T05:29:23.895Z,16.36
2022-08-11T05:32:19.965Z,16.58
2022-08-11T05:34:54.968Z,16.57
2022-08-11T05:37:39.876Z,16.89
2022-08-11T05:40:27.829Z,17.06
2022-08-11T05:43:17.263Z,17.07
2022-08-11T05:46:07.055Z,17.27
2022-08-11T05:48:55.599Z,17.48
2022-08-11T05:51:52.485Z,17.75
2022-08-11T05:54:46.009Z,18.01
2022-08-11T05:57:45.560Z,18.19
2022-08-11T06:00:11.992Z,18.40
2022-08-11T06:02:44.397Z,18.68
2022-08-11T06:05:14.204Z,18.89
2022-08-11T06:07:47.201Z,18.96
2022-08-11T06:10:28.820Z,19.07
2022-08-11T06:13:01.096Z,19.26
2022-08-11T06:15:31.234Z,19.49
2022-08-11T06:18:01.371Z,19.54
2022-08-11T06:20:36.536Z,19.20
2022-08-11T06:23:07.001Z,19.74
2022-08-11T06:25:38.302Z,19.62
2022-08-11T06:28:08.353Z,19.83
2022-08-11T06:30:42.802Z,19.89
2022-08-11T06:33:14.088Z,20.23
2022-08-11T06:35:58.717Z,20.34
2022-08-11T06:38:40.189Z,20.34
2022-08-11T06:41:32.094Z,20.00
2022-08-11T06:44:21.537Z,20.51
2022-08-11T06:46:53.877Z,20.91
2022-08-11T06:49:41.391Z,21.30
2022-08-11T06:52:34.646Z,21.41
2022-08-11T06:55:11.326Z,21.69
2022-08-11T06:58:15.958Z,21.84
2022-08-11T07:00:45.372Z,22.22
2022-08-11T07:03:17.589Z,26.42
2022-08-11T07:05:49.573Z,34.84
2022-08-11T07:09:07.413Z,37.31
2022-08-11T07:12:28.243Z,36.98
2022-08-11T07:15:17.595Z,38.20
2022-08-11T07:18:11.325Z,37.40
2022-08-11T07:21:01.939Z,36.64
2022-08-11T07:23:53.144Z,37.02
2022-08-11T07:26:43.154Z,38.05
2022-08-11T07:29:14.222Z,38.60
2022-08-11T07:31:50.751Z,37.81
2022-08-11T07:34:23.546Z,37.28
2022-08-11T07:36:55.569Z,36.78
2022-08-11T07:39:26.936Z,38.86
2022-08-11T07:41:58.288Z,36.84
2022-08-11T07:44:34.624Z,38.58
2022-08-11T07:47:23.352Z,37.03
2022-08-11T07:50:12.589Z,37.94
2022-08-11T07:52:41.087Z,36.56
2022-08-11T07:55:16.907Z,35.60
2022-08-11T07:58:19.185Z,33.99
2022-08-11T08:01:10.085Z,35.73
2022-08-11T08:03:59.471Z,35.12
2022-08-11T08:06:46.086Z,36.38
2022-08-11T08:09:35.439Z,35.32
2022-08-11T08:12:22.921Z,36.18
2022-08-11T08:15:10.688Z,36.63
2022-08-11T08:18:20.513Z,36.87
2022-08-11T08:20:47.540Z,38.05
2022-08-11T08:23:16.043Z,38.77
2022-08-11T08:25:46.701Z,36.24
2022-08-11T08:28:18.945Z,38.86
2022-08-11T08:30:51.008Z,39.69
2022-08-11T08:33:22.842Z,38.84
2022-08-11T08:36:11.779Z,37.42
2022-08-11T08:38:48.376Z,38.71
2022-08-11T08:41:20.978Z,37.37
2022-08-11T08:43:53.432Z,40.68
2022-08-11T08:46:26.756Z,37.80
2022-08-11T08:48:56.340Z,40.05
2022-08-11T08:51:58.526Z,39.29
2022-08-11T08:54:30.064Z,37.53
2022-08-11T08:56:58.631Z,38.32
2022-08-11T08:59:38.136Z,35.12
2022-08-11T09:02:18.500Z,36.94
2022-08-11T09:05:02.735Z,39.17
2022-08-11T09:07:39.044Z,38.19
2022-08-11T09:10:11.307Z,35.21
2022-08-11T09:12:42.452Z,36.69
2022-08-11T09:15:12.763Z,35.03
2022-08-11T09:17:44.760Z,38.07
2022-08-11T09:20:15.894Z,37.47
2022-08-11T09:23:47.843Z,35.90
2022-08-11T09:26:14.002Z,34.79
2022-08-11T09:28:44.098Z,34.70
2022-08-11T09:31:17.407Z,34.84
2022-08-11T09:33:47.012Z,36.11
2022-08-11T09:36:32.802Z,35.64
2022-08-11T09:39:23.567Z,35.88
2022-08-11T09:42:01.908Z,36.82
2022-08-11T09:44:49.853Z,35.83
2022-08-11T09:47:24.836Z,34.38
2022-08-11T09:50:00.417Z,35.11
2022-08-11T09:52:30.953Z,34.13
2022-08-11T09:55:02.347Z,34.26
2022-08-11T09:57:48.777Z,35.04
2022-08-11T10:00:18.132Z,33.81
2022-08-11T10:02:48.544Z,34.83
2022-08-11T10:05:37.649Z,34.62
2022-08-11T10:08:07.461Z,33.39
2022-08-11T10:10:39.226Z,33.95
2022-08-11T10:14:04.902Z,33.52
2022-08-11T10:16:15.613Z,34.95
2022-08-11T10:18:53.369Z,35.46
2022-08-11T10:21:42.527Z,34.88
2022-08-11T10:24:30.453Z,35.10
2022-08-11T10:27:00.791Z,33.29
2022-08-11T10:29:51.180Z,32.39
2022-08-11T10:32:49.441Z,31.90
2022-08-11T10:35:27.849Z,32.91
2022-08-11T10:38:08.948Z,32.16
2022-08-11T10:40:40.683Z,33.89
2022-08-11T10:43:14.504Z,33.79
2022-08-11T10:46:25.740Z,32.22
2022-08-11T10:49:00.040Z,31.61
2022-08-11T10:51:51.676Z,32.14
2022-08-11T10:54:41.614Z,30.88
2022-08-11T10:57:28.846Z,30.14
2022-08-11T10:59:59.916Z,29.94
2022-08-11T11:02:29.774Z,31.10
2022-08-11T11:05:02.960Z,32.71
2022-08-11T11:07:44.464Z,32.76
2022-08-11T11:10:13.244Z,31.41
2022-08-11T11:13:02.311Z,30.99
2022-08-11T11:15:53.725Z,32.66
2022-08-11T11:18:25.134Z,33.79
2022-08-11T11:20:57.717Z,31.90
2022-08-11T11:23:29.536Z,30.84
2022-08-11T11:26:27.054Z,31.23
2022-08-11T11:29:43.689Z,30.97
2022-08-11T11:32:29.046Z,29.63
2022-08-11T11:35:26.786Z,30.69
2022-08-11T11:38:04.192Z,31.21
2022-08-11T11:40:34.627Z,31.39
2022-08-11T11:43:03.907Z,32.03
2022-08-11T11:45:32.922Z,30.15
2022-08-11T11:48:03.560Z,30.26
2022-08-11T11:50:34.977Z,30.67
2022-08-11T11:53:06.960Z,28.94
2022-08-11T11:55:36.259Z,29.25
2022-08-11T11:58:23.865Z,29.66
2022-08-11T12:01:12.034Z,29.85
2022-08-11T12:03:43.062Z,29.60
2022-08-11T12:06:14.342Z,30.51
2022-08-11T12:08:44.356Z,30.37
2022-08-11T12:11:31.745Z,29.94
2022-08-11T12:14:04.743Z,30.44
2022-08-11T12:16:42.078Z,30.32
2022-08-11T12:19:14.695Z,30.29
2022-08-11T12:22:04.026Z,29.32
2022-08-11T12:24:52.981Z,28.80
2022-08-11T12:27:24.944Z,28.87
2022-08-11T12:29:56.437Z,29.83
2022-08-11T12:32:29.079Z,28.52
2022-08-11T12:35:00.408Z,28.31
2022-08-11T12:37:33.604Z,28.47
2022-08-11T12:40:42.693Z,28.70
2022-08-11T12:43:37.839Z,28.25
2022-08-11T12:46:10.824Z,29.21
2022-08-11T12:49:04.611Z,29.88
2022-08-11T12:52:11.081Z,29.62
2022-08-11T12:54:49.799Z,29.86
2022-08-11T12:57:45.946Z,30.58
2022-08-11T13:00:34.275Z,29.76
2022-08-11T13:03:22.035Z,29.07
2022-08-11T13:05:54.588Z,28.64
2022-08-11T13:08:27.030Z,29.21
2022-08-11T13:11:56.198Z,30.09
2022-08-11T13:14:19.012Z,30.07
2022-08-11T13:17:05.525Z,29.80
2022-08-11T13:19:35.714Z,29.24
2022-08-11T13:22:07.486Z,29.72
2022-08-11T13:24:37.949Z,29.20
2022-08-11T13:27:06.616Z,29.65
2022-08-11T13:29:36.123Z,30.41
2022-08-11T13:32:06.642Z,29.27
2022-08-11T13:34:41.790Z,29.99
2022-08-11T13:37:12.243Z,29.50
2022-08-11T13:39:47.468Z,29.67
2022-08-11T13:42:20.244Z,29.73
2022-08-11T13:44:49.711Z,27.85
2022-08-11T13:47:18.861Z,27.60
2022-08-11T13:49:48.240Z,29.38
2022-08-11T13:52:18.611Z,28.86
2022-08-11T13:54:51.284Z,29.17
2022-08-11T13:58:06.314Z,29.64
2022-08-11T14:00:13.282Z,29.75
2022-08-11T14:02:56.905Z,30.29
2022-08-11T14:05:29.508Z,29.83
2022-08-11T14:08:03.600Z,29.94
2022-08-11T14:10:36.786Z,30.44
2022-08-11T14:13:26.854Z,30.61
2022-08-11T14:15:57.576Z,29.82
2022-08-11T14:18:29.838Z,29.74
2022-08-11T14:21:18.210Z,29.01
2022-08-11T14:23:50.828Z,28.92
2022-08-11T14:26:26.367Z,27.75
2022-08-11T14:28:59.185Z,28.06
2022-08-11T14:31:32.192Z,28.95
2022-08-11T14:34:04.646Z,29.71
2022-08-11T14:36:37.982Z,30.52
2022-08-11T14:39:13.017Z,28.50
2022-08-11T14:42:11.324Z,28.98
2022-08-11T14:45:17.021Z,30.61
2022-08-11T14:47:50.266Z,30.25
2022-08-11T14:50:23.328Z,29.71
2022-08-11T14:52:55.272Z,30.56
2022-08-11T14:55:43.126Z,30.00
2022-08-11T14:58:17.386Z,30.59
2022-08-11T15:00:46.374Z,30.22
2022-08-11T15:03:15.504Z,28.57
2022-08-11T15:05:56.616Z,29.78
2022-08-11T15:08:47.041Z,30.18
2022-08-11T15:11:34.774Z,29.15
2022-08-11T15:14:07.212Z,30.20
2022-08-11T15:16:55.319Z,30.64
2022-08-11T15:19:40.623Z,30.38
2022-08-11T15:22:29.050Z,30.23
2022-08-11T15:24:59.751Z,28.79
2022-08-11T15:27:48.767Z,28.39
2022-08-11T15:30:36.191Z,29.41
2022-08-11T15:33:27.077Z,30.65
2022-08-11T15:36:15.918Z,31.36
2022-08-11T15:38:54.929Z,31.34
2022-08-11T15:41:58.512Z,31.36
2022-08-11T15:45:02.135Z,30.73
2022-08-11T15:47:41.595Z,30.36
2022-08-11T15:50:15.431Z,29.34
2022-08-11T15:52:50.926Z,29.21
2022-08-11T15:55:20.876Z,29.17
2022-08-11T15:58:09.584Z,29.21
2022-08-11T16:01:00.698Z,29.44
2022-08-11T16:04:09.837Z,29.47
2022-08-11T16:06:44.066Z,30.03
2022-08-11T16:09:23.251Z,29.79
2022-08-11T16:11:53.772Z,29.81
2022-08-11T16:14:41.428Z,29.21
2022-08-11T16:17:12.551Z,28.36
2022-08-11T16:19:45.176Z,28.38
2022-08-11T16:22:16.233Z,28.74
2022-08-11T16:27:04.427Z,29.80
2022-08-11T16:27:39.849Z,29.65
2022-08-11T16:30:09.210Z,29.58
2022-08-11T16:32:41.759Z,29.36
2022-08-11T16:35:33.655Z,29.45
2022-08-11T16:38:20.915Z,29.47
2022-08-11T16:40:52.303Z,29.76
2022-08-11T16:43:41.112Z,30.00
2022-08-11T16:46:33.005Z,29.13
2022-08-11T16:49:03.074Z,29.94
2022-08-11T16:51:34.305Z,29.45
2022-08-11T16:54:05.943Z,28.73
2022-08-11T16:56:38.503Z,28.52
2022-08-11T16:59:16.348Z,28.52
2022-08-11T17:01:49.459Z,28.55
2022-08-11T17:04:42.812Z,29.14
2022-08-11T17:07:42.198Z,28.26
2022-08-11T17:10:52.077Z,28.45
2022-08-11T17:13:29.146Z,28.58
2022-08-11T17:16:07.990Z,28.04
2022-08-11T17:18:43.165Z,27.73
2022-08-11T17:21:17.381Z,28.46
2022-08-11T17:23:50.352Z,28.62
2022-08-11T17:26:25.469Z,28.52
2022-08-11T17:28:58.216Z,28.26
2022-08-11T17:31:45.908Z,28.03
2022-08-11T17:34:33.302Z,27.57
2022-08-11T17:37:02.403Z,27.45
2022-08-11T17:39:33.727Z,27.50
2022-08-11T17:42:29.035Z,27.62
2022-08-11T17:45:16.698Z,27.42
2022-08-11T17:48:03.225Z,27.21
2022-08-11T17:50:32.189Z,26.96
2022-08-11T17:53:18.934Z,26.82
2022-08-11T17:56:07.390Z,26.70
2022-08-11T17:58:53.859Z,26.44
2022-08-11T18:01:24.947Z,26.28
2022-08-11T18:03:58.023Z,25.70
2022-08-11T18:06:32.578Z,25.01
2022-08-11T18:09:22.893Z,25.00
2022-08-11T18:12:13.104Z,24.86
2022-08-11T18:15:03.131Z,24.59
2022-08-11T18:17:49.226Z,24.34
2022-08-11T18:20:35.804Z,24.15
2022-08-11T18:23:46.133Z,23.91
2022-08-11T18:26:34.886Z,23.71
2022-08-11T18:29:25.065Z,23.52
2022-08-11T18:32:20.843Z,23.33
2022-08-11T18:35:10.819Z,23.16
2022-08-11T18:38:02.308Z,22.94
2022-08-11T18:40:49.206Z,22.82
2022-08-11T18:43:38.818Z,22.62
2022-08-11T18:46:29.852Z,22.41
2022-08-11T18:49:19.921Z,22.27
2022-08-11T18:52:09.205Z,22.16
2022-08-11T18:54:57.325Z,22.12
2022-08-11T18:57:52.059Z,21.87
2022-08-11T19:00:41.458Z,21.88
2022-08-11T19:03:30.268Z,21.69
2022-08-11T19:06:40.108Z,21.54
2022-08-11T19:09:26.890Z,21.39
2022-08-11T19:12:13.656Z,21.16
2022-08-11T19:15:00.404Z,21.11
2022-08-11T19:17:49.233Z,20.93
2022-08-11T19:20:39.272Z,20.79
2022-08-11T19:23:27.244Z,20.62
2022-08-11T19:26:12.971Z,20.50
2022-08-11T19:29:02.781Z,20.20
2022-08-11T19:31:55.008Z,20.08
2022-08-11T19:34:43.153Z,19.99
2022-08-11T19:37:31.548Z,20.00
2022-08-11T19:40:23.611Z,19.89
2022-08-11T19:43:14.827Z,19.70
2022-08-11T19:46:10.930Z,19.48
2022-08-11T19:48:57.671Z,19.58
2022-08-11T19:51:43.872Z,19.54
2022-08-11T19:54:31.932Z,19.62
2022-08-11T19:57:19.214Z,19.54
2022-08-11T20:00:05.727Z,19.54
2022-08-11T20:02:51.486Z,19.48
2022-08-11T20:05:37.212Z,19.25
2022-08-11T20:08:25.827Z,19.20
2022-08-11T20:11:14.522Z,18.90
2022-08-11T20:14:02.262Z,18.95
2022-08-11T20:16:48.310Z,19.02
2022-08-11T20:19:55.319Z,18.97
2022-08-11T20:22:43.691Z,18.96
2022-08-11T20:25:31.365Z,18.97
2022-08-11T20:28:18.939Z,18.84
2022-08-11T20:31:04.479Z,18.75
2022-08-11T20:33:52.023Z,18.43
2022-08-11T20:36:39.426Z,18.29
2022-08-11T20:39:26.020Z,18.26
2022-08-11T20:42:13.388Z,18.08
2022-08-11T20:45:02.408Z,18.12
2022-08-11T20:50:55.207Z,18.25
2022-08-11T20:53:44.481Z,18.05
2022-08-11T20:56:30.810Z,17.82
2022-08-11T21:02:27.627Z,17.67
2022-08-11T21:05:19.744Z,17.19
2022-08-11T21:08:25.470Z,16.85
2022-08-11T21:14:21.814Z,17.16
2022-08-11T21:17:37.725Z,17.39
2022-08-11T21:20:22.753Z,17.30
2022-08-11T21:23:14.954Z,17.27
2022-08-11T21:26:17.455Z,17.22
2022-08-11T21:29:05.148Z,17.02
2022-08-11T21:31:53.940Z,17.01
2022-08-11T21:34:42.430Z,17.02
2022-08-11T21:37:31.273Z,17.03
2022-08-11T21:40:18.883Z,17.15
2022-08-11T21:43:07.036Z,17.13
2022-08-11T21:45:56.486Z,17.22
2022-08-11T21:48:43.982Z,17.09
2022-08-11T21:51:29.322Z,16.80
2022-08-11T21:54:18.402Z,16.84
2022-08-11T21:57:05.364Z,16.67
2022-08-11T22:00:00.491Z,16.53
2022-08-11T22:02:49.037Z,16.52
2022-08-11T22:05:39.548Z,16.61
2022-08-11T22:08:26.830Z,16.76
2022-08-11T22:11:14.229Z,16.83
2022-08-11T22:14:06.236Z,16.68
2022-08-11T22:16:54.098Z,16.44
2022-08-11T22:19:42.470Z,16.50
2022-08-11T22:22:31.684Z,16.46
2022-08-11T22:25:18.449Z,16.43
2022-08-11T22:28:05.507Z,16.40
2022-08-11T22:30:52.289Z,16.40
2022-08-11T22:33:46.583Z,16.38
2022-08-11T22:36:49.528Z,16.47
2022-08-11T22:39:35.675Z,16.33
2022-08-11T22:42:33.725Z,16.08
2022-08-11T22:45:22.657Z,15.90
2022-08-11T22:48:10.345Z,15.87
2022-08-11T22:50:59.178Z,15.90
2022-08-11T22:53:55.180Z,15.91
2022-08-11T22:56:46.462Z,15.79
2022-08-11T22:59:32.911Z,15.84
2022-08-11T23:02:20.597Z,15.93
2022-08-11T23:05:07.494Z,15.85
2022-08-11T23:07:53.204Z,15.69
2022-08-11T23:10:39.922Z,15.45
2022-08-11T23:13:27.084Z,15.59
2022-08-11T23:16:14.285Z,15.49
2022-08-11T23:19:01.750Z,15.44
2022-08-11T23:21:48.075Z,15.43
2022-08-11T23:24:34.482Z,15.40
2022-08-11T23:27:21.056Z,15.42
2022-08-11T23:30:09.131Z,15.32
2022-08-11T23:32:58.063Z,15.44
2022-08-11T23:35:55.489Z,15.14
2022-08-11T23:38:43.055Z,14.90
2022-08-11T23:41:29.220Z,15.03
2022-08-11T23:44:15.575Z,15.12
2022-08-11T23:47:03.050Z,15.14
2022-08-11T23:49:48.982Z,15.25
2022-08-11T23:52:38.178Z,15.19
2022-08-11T23:55:24.694Z,15.08
2022-08-11T23:58:10.511Z,15.15
